createdAt,value
2023-05-13T00:00:40.530Z,475.00
2023-05-13T00:01:40.589Z,476.00
2023-05-13T00:02:40.614Z,475.00
2023-05-13T00:03:40.759Z,475.00
2023-05-13T00:04:40.586Z,473.00
2023-05-13T00:05:40.640Z,473.00
2023-05-13T00:06:40.941Z,475.00
2023-05-13T00:07:40.616Z,475.00
2023-05-13T00:08:40.636Z,475.00
2023-05-13T00:09:40.703Z,474.00
2023-05-13T00:10:40.666Z,475.00
2023-05-13T00:11:40.714Z,474.00
2023-05-13T00:12:40.706Z,478.00
2023-05-13T00:13:40.711Z,477.00
2023-05-13T00:14:40.745Z,478.00
2023-05-13T00:15:40.759Z,479.00
2023-05-13T00:16:40.879Z,478.00
2023-05-13T00:17:40.819Z,479.00
2023-05-13T00:18:40.828Z,479.00
2023-05-13T00:19:40.835Z,480.00
2023-05-13T00:20:40.855Z,479.00
2023-05-13T00:21:40.878Z,482.00
2023-05-13T00:22:40.941Z,483.00
2023-05-13T00:23:40.919Z,486.00
2023-05-13T00:24:40.952Z,488.00
2023-05-13T00:25:40.955Z,488.00
2023-05-13T00:26:40.972Z,486.00
2023-05-13T00:27:41.040Z,485.00
2023-05-13T00:28:41.029Z,488.00
2023-05-13T00:29:41.065Z,489.00
2023-05-13T00:30:41.060Z,491.00
2023-05-13T00:31:41.110Z,489.00
2023-05-13T00:32:41.174Z,488.00
2023-05-13T00:33:41.134Z,488.00
2023-05-13T00:34:41.152Z,488.00
2023-05-13T00:35:41.179Z,487.00
2023-05-13T00:36:41.209Z,487.00
2023-05-13T00:37:41.548Z,484.00
2023-05-13T00:38:41.249Z,483.00
2023-05-13T00:39:41.273Z,485.00
2023-05-13T00:40:41.552Z,486.00
2023-05-13T00:41:41.323Z,488.00
2023-05-13T00:42:41.353Z,488.00
2023-05-13T00:43:41.389Z,490.00
2023-05-13T00:44:41.381Z,491.00
2023-05-13T00:45:41.636Z,492.00
2023-05-13T00:46:41.437Z,493.00
2023-05-13T00:47:41.531Z,494.00
2023-05-13T00:48:41.467Z,490.00
2023-05-13T00:49:41.481Z,488.00
2023-05-13T00:50:41.498Z,489.00
2023-05-13T00:51:41.649Z,491.00
2023-05-13T00:52:41.535Z,490.00
2023-05-13T00:53:41.569Z,489.00
2023-05-13T00:54:41.606Z,490.00
2023-05-13T00:55:41.621Z,491.00
2023-05-13T00:56:41.640Z,488.00
2023-05-13T00:57:41.862Z,489.00
2023-05-13T00:58:41.691Z,490.00
2023-05-13T00:59:41.737Z,490.00
2023-05-13T01:00:41.744Z,487.00
2023-05-13T01:01:41.880Z,488.00
2023-05-13T01:02:41.915Z,485.00
2023-05-13T01:03:41.961Z,485.00
2023-05-13T01:04:41.831Z,487.00
2023-05-13T01:05:41.858Z,489.00
2023-05-13T01:06:41.882Z,490.00
2023-05-13T01:07:41.911Z,494.00
2023-05-13T01:08:41.938Z,493.00
2023-05-13T01:09:42.110Z,492.00
2023-05-13T01:10:42.118Z,494.00
2023-05-13T01:11:41.992Z,494.00
2023-05-13T01:12:42.094Z,492.00
2023-05-13T01:13:42.043Z,492.00
2023-05-13T01:14:42.063Z,492.00
2023-05-13T01:15:42.107Z,492.00
2023-05-13T01:16:42.302Z,492.00
2023-05-13T01:17:42.195Z,491.00
2023-05-13T01:18:42.192Z,490.00
2023-05-13T01:19:42.199Z,491.00
2023-05-13T01:20:42.219Z,490.00
2023-05-13T01:21:42.416Z,492.00
2023-05-13T01:22:42.275Z,490.00
2023-05-13T01:23:42.298Z,490.00
2023-05-13T01:24:42.370Z,489.00
2023-05-13T01:25:42.355Z,488.00
2023-05-13T01:26:42.382Z,488.00
2023-05-13T01:27:42.624Z,487.00
2023-05-13T01:28:42.427Z,487.00
2023-05-13T01:29:42.461Z,487.00
2023-05-13T01:30:42.498Z,489.00
2023-05-13T01:31:42.667Z,491.00
2023-05-13T01:32:42.634Z,489.00
2023-05-13T01:33:42.718Z,492.00
2023-05-13T01:34:42.634Z,494.00
2023-05-13T01:35:42.657Z,493.00
2023-05-13T01:36:42.677Z,490.00
2023-05-13T01:37:42.712Z,487.00
2023-05-13T01:38:42.734Z,484.00
2023-05-13T01:39:42.987Z,485.00
2023-05-13T01:40:42.825Z,486.00
2023-05-13T01:41:42.833Z,486.00
2023-05-13T01:42:42.868Z,487.00
2023-05-13T01:43:42.895Z,485.00
2023-05-13T01:44:42.910Z,485.00
2023-05-13T01:45:42.986Z,485.00
2023-05-13T01:46:43.100Z,488.00
2023-05-13T01:47:43.112Z,489.00
2023-05-13T01:48:43.098Z,488.00
2023-05-13T01:49:43.053Z,486.00
2023-05-13T01:50:43.090Z,485.00
2023-05-13T01:51:43.100Z,487.00
2023-05-13T01:52:43.224Z,488.00
2023-05-13T01:53:43.174Z,487.00
2023-05-13T01:54:43.215Z,486.00
2023-05-13T01:55:43.301Z,486.00
2023-05-13T01:56:43.259Z,487.00
2023-05-13T01:57:43.369Z,486.00
2023-05-13T01:58:43.309Z,487.00
2023-05-13T01:59:43.364Z,486.00
2023-05-13T02:00:43.383Z,488.00
2023-05-13T02:01:43.468Z,488.00
2023-05-13T02:02:43.490Z,485.00
2023-05-13T02:03:43.631Z,485.00
2023-05-13T02:04:43.481Z,487.00
2023-05-13T02:05:43.529Z,488.00
2023-05-13T02:06:43.556Z,489.00
2023-05-13T02:07:43.585Z,489.00
2023-05-13T02:08:43.660Z,489.00
2023-05-13T02:09:43.723Z,488.00
2023-05-13T02:10:43.657Z,488.00
2023-05-13T02:11:43.689Z,487.00
2023-05-13T02:12:43.720Z,485.00
2023-05-13T02:13:43.738Z,486.00
2023-05-13T02:14:43.772Z,487.00
2023-05-13T02:15:43.840Z,486.00
2023-05-13T02:16:43.849Z,485.00
2023-05-13T02:17:43.893Z,485.00
2023-05-13T02:18:44.012Z,487.00
2023-05-13T02:19:43.922Z,488.00
2023-05-13T02:20:43.923Z,489.00
2023-05-13T02:21:43.950Z,488.00
2023-05-13T02:22:43.986Z,488.00
2023-05-13T02:23:44.031Z,491.00
2023-05-13T02:24:44.049Z,490.00
2023-05-13T02:25:44.082Z,491.00
2023-05-13T02:26:44.150Z,489.00
2023-05-13T02:27:44.127Z,491.00
2023-05-13T02:28:44.164Z,488.00
2023-05-13T02:29:44.181Z,487.00
2023-05-13T02:30:44.203Z,487.00
2023-05-13T02:31:44.405Z,489.00
2023-05-13T02:32:44.423Z,490.00
2023-05-13T02:33:44.297Z,490.00
2023-05-13T02:34:44.336Z,491.00
2023-05-13T02:35:44.373Z,492.00
2023-05-13T02:36:44.372Z,490.00
2023-05-13T02:37:44.577Z,490.00
2023-05-13T02:38:44.434Z,491.00
2023-05-13T02:39:44.461Z,492.00
2023-05-13T02:40:44.494Z,491.00
2023-05-13T02:41:44.549Z,490.00
2023-05-13T02:42:44.549Z,492.00
2023-05-13T02:43:44.756Z,491.00
2023-05-13T02:44:44.679Z,490.00
2023-05-13T02:45:44.675Z,492.00
2023-05-13T02:46:44.675Z,490.00
2023-05-13T02:47:44.729Z,491.00
2023-05-13T02:48:44.750Z,490.00
2023-05-13T02:49:44.938Z,491.00
2023-05-13T02:50:44.804Z,491.00
2023-05-13T02:51:44.862Z,490.00
2023-05-13T02:52:44.858Z,491.00
2023-05-13T02:53:44.893Z,489.00
2023-05-13T02:54:44.984Z,489.00
2023-05-13T02:55:45.075Z,491.00
2023-05-13T02:56:45.042Z,492.00
2023-05-13T02:57:45.016Z,493.00
2023-05-13T02:58:45.106Z,491.00
2023-05-13T02:59:45.094Z,492.00
2023-05-13T03:00:45.087Z,493.00
2023-05-13T03:01:45.189Z,492.00
2023-05-13T03:02:45.276Z,492.00
2023-05-13T03:03:45.191Z,492.00
2023-05-13T03:04:45.197Z,493.00
2023-05-13T03:05:45.235Z,494.00
2023-05-13T03:06:45.257Z,497.00
2023-05-13T03:07:45.313Z,497.00
2023-05-13T03:08:45.314Z,497.00
2023-05-13T03:09:45.342Z,497.00
2023-05-13T03:10:45.372Z,498.00
2023-05-13T03:11:45.400Z,498.00
2023-05-13T03:12:45.430Z,500.00
2023-05-13T03:13:45.470Z,497.00
2023-05-13T03:14:45.485Z,498.00
2023-05-13T03:15:45.537Z,496.00
2023-05-13T03:16:45.546Z,495.00
2023-05-13T03:17:45.587Z,492.00
2023-05-13T03:18:45.713Z,494.00
2023-05-13T03:19:45.646Z,496.00
2023-05-13T03:20:45.663Z,493.00
2023-05-13T03:21:45.697Z,492.00
2023-05-13T03:22:45.744Z,493.00
2023-05-13T03:23:45.791Z,493.00
2023-05-13T03:24:45.799Z,496.00
2023-05-13T03:25:45.849Z,495.00
2023-05-13T03:26:45.871Z,497.00
2023-05-13T03:27:45.900Z,501.00
2023-05-13T03:28:45.937Z,501.00
2023-05-13T03:29:45.973Z,501.00
2023-05-13T03:30:46.009Z,498.00
2023-05-13T03:31:46.067Z,498.00
2023-05-13T03:32:46.082Z,499.00
2023-05-13T03:33:46.088Z,498.00
2023-05-13T03:34:46.125Z,497.00
2023-05-13T03:35:46.143Z,496.00
2023-05-13T03:36:46.183Z,494.00
2023-05-13T03:37:46.218Z,496.00
2023-05-13T03:38:46.258Z,497.00
2023-05-13T03:39:46.323Z,496.00
2023-05-13T03:40:46.323Z,495.00
2023-05-13T03:41:46.355Z,495.00
2023-05-13T03:42:46.386Z,494.00
2023-05-13T03:43:46.438Z,493.00
2023-05-13T03:44:46.464Z,492.00
2023-05-13T03:45:46.492Z,492.00
2023-05-13T03:46:46.550Z,493.00
2023-05-13T03:47:46.610Z,492.00
2023-05-13T03:48:46.583Z,491.00
2023-05-13T03:49:46.625Z,490.00
2023-05-13T03:50:46.656Z,490.00
2023-05-13T03:51:46.681Z,491.00
2023-05-13T03:52:47.360Z,494.00
2023-05-13T03:53:46.748Z,494.00
2023-05-13T03:54:46.777Z,492.00
2023-05-13T03:55:46.822Z,493.00
2023-05-13T03:56:46.821Z,495.00
2023-05-13T03:57:46.851Z,496.00
2023-05-13T03:58:47.040Z,497.00
2023-05-13T03:59:46.902Z,496.00
2023-05-13T04:00:47.003Z,495.00
2023-05-13T04:01:46.989Z,490.00
2023-05-13T04:02:47.038Z,486.00
2023-05-13T04:03:47.228Z,485.00
2023-05-13T04:04:47.115Z,488.00
2023-05-13T04:05:47.079Z,491.00
2023-05-13T04:06:47.089Z,492.00
2023-05-13T04:07:47.124Z,495.00
2023-05-13T04:08:47.137Z,493.00
2023-05-13T04:09:47.169Z,491.00
2023-05-13T04:10:47.226Z,492.00
2023-05-13T04:11:47.325Z,492.00
2023-05-13T04:12:47.260Z,493.00
2023-05-13T04:13:47.277Z,494.00
2023-05-13T04:14:47.301Z,497.00
2023-05-13T04:15:47.340Z,495.00
2023-05-13T04:16:47.419Z,495.00
2023-05-13T04:17:47.454Z,495.00
2023-05-13T04:18:47.473Z,494.00
2023-05-13T04:19:47.474Z,494.00
2023-05-13T04:20:47.490Z,492.00
2023-05-13T04:21:47.509Z,493.00
2023-05-13T04:22:47.545Z,492.00
2023-05-13T04:23:47.573Z,495.00
2023-05-13T04:24:47.610Z,496.00
2023-05-13T04:25:47.631Z,496.00
2023-05-13T04:26:47.679Z,497.00
2023-05-13T04:27:47.740Z,495.00
2023-05-13T04:28:47.775Z,496.00
2023-05-13T04:29:47.820Z,495.00
2023-05-13T04:30:47.798Z,496.00
2023-05-13T04:31:47.849Z,499.00
2023-05-13T04:32:47.919Z,497.00
2023-05-13T04:33:47.890Z,499.00
2023-05-13T04:34:47.917Z,494.00
2023-05-13T04:35:47.962Z,493.00
2023-05-13T04:36:47.990Z,496.00
2023-05-13T04:37:48.017Z,493.00
2023-05-13T04:38:48.037Z,494.00
2023-05-13T04:39:48.106Z,496.00
2023-05-13T04:40:48.099Z,499.00
2023-05-13T04:41:48.146Z,499.00
2023-05-13T04:42:48.149Z,498.00
2023-05-13T04:43:48.202Z,496.00
2023-05-13T04:44:48.281Z,496.00
2023-05-13T04:45:48.251Z,498.00
2023-05-13T04:46:48.386Z,498.00
2023-05-13T04:47:48.360Z,499.00
2023-05-13T04:48:48.370Z,496.00
2023-05-13T04:49:48.553Z,497.00
2023-05-13T04:50:48.437Z,496.00
2023-05-13T04:51:48.422Z,496.00
2023-05-13T04:52:48.438Z,498.00
2023-05-13T04:53:48.465Z,499.00
2023-05-13T04:54:48.520Z,499.00
2023-05-13T04:55:48.584Z,502.00
2023-05-13T04:56:48.554Z,501.00
2023-05-13T04:57:48.775Z,501.00
2023-05-13T04:58:48.615Z,502.00
2023-05-13T04:59:48.665Z,502.00
2023-05-13T05:00:48.709Z,503.00
2023-05-13T05:01:48.750Z,500.00
2023-05-13T05:02:48.771Z,497.00
2023-05-13T05:03:48.815Z,497.00
2023-05-13T05:04:48.797Z,499.00
2023-05-13T05:05:48.824Z,498.00
2023-05-13T05:06:48.982Z,498.00
2023-05-13T05:07:48.872Z,497.00
2023-05-13T05:08:48.957Z,500.00
2023-05-13T05:09:48.943Z,496.00
2023-05-13T05:10:48.961Z,499.00
2023-05-13T05:11:48.987Z,498.00
2023-05-13T05:12:49.178Z,497.00
2023-05-13T05:13:49.056Z,498.00
2023-05-13T05:14:49.080Z,499.00
2023-05-13T05:15:49.128Z,500.00
2023-05-13T05:16:49.227Z,503.00
2023-05-13T05:17:49.446Z,503.00
2023-05-13T05:18:49.240Z,501.00
2023-05-13T05:19:49.208Z,499.00
2023-05-13T05:20:49.229Z,499.00
2023-05-13T05:21:49.251Z,498.00
2023-05-13T05:22:49.274Z,498.00
2023-05-13T05:23:49.438Z,498.00
2023-05-13T05:24:49.327Z,499.00
2023-05-13T05:25:53.223Z,497.00
2023-05-13T05:26:49.347Z,500.00
2023-05-13T05:27:49.334Z,501.00
2023-05-13T05:28:49.334Z,500.00
2023-05-13T05:29:49.318Z,499.00
2023-05-13T05:30:49.394Z,504.00
2023-05-13T05:31:49.366Z,504.00
2023-05-13T05:32:49.317Z,499.00
2023-05-13T05:33:49.280Z,497.00
2023-05-13T05:34:49.277Z,495.00
2023-05-13T05:35:49.256Z,497.00
2023-05-13T05:36:49.398Z,497.00
2023-05-13T05:37:49.243Z,498.00
2023-05-13T05:38:49.242Z,496.00
2023-05-13T05:39:49.224Z,494.00
2023-05-13T05:40:49.210Z,495.00
2023-05-13T05:41:49.196Z,494.00
2023-05-13T05:42:49.342Z,490.00
2023-05-13T05:43:49.176Z,487.00
2023-05-13T05:44:49.163Z,486.00
2023-05-13T05:45:49.248Z,486.00
2023-05-13T05:46:49.131Z,488.00
2023-05-13T05:47:49.289Z,491.00
2023-05-13T05:48:49.111Z,491.00
2023-05-13T05:49:49.120Z,495.00
2023-05-13T05:50:49.081Z,496.00
2023-05-13T05:51:49.088Z,496.00
2023-05-13T05:52:49.073Z,497.00
2023-05-13T05:53:49.231Z,500.00
2023-05-13T05:54:49.172Z,506.00
2023-05-13T05:55:51.086Z,505.00
2023-05-13T05:56:49.069Z,504.00
2023-05-13T05:57:49.051Z,504.00
2023-05-13T05:58:49.048Z,506.00
2023-05-13T05:59:49.045Z,508.00
2023-05-13T06:00:49.064Z,510.00
2023-05-13T06:01:48.986Z,514.00
2023-05-13T06:02:49.094Z,519.00
2023-05-13T06:03:50.468Z,525.00
2023-05-13T06:04:49.112Z,532.00
2023-05-13T06:05:48.980Z,545.00
2023-05-13T06:06:48.991Z,572.00
2023-05-13T06:07:48.911Z,580.00
2023-05-13T06:08:48.918Z,581.00
2023-05-13T06:09:48.893Z,578.00
2023-05-13T06:10:48.887Z,573.00
2023-05-13T06:11:48.887Z,564.00
2023-05-13T06:12:48.863Z,559.00
2023-05-13T06:13:48.851Z,556.00
2023-05-13T06:14:48.850Z,557.00
2023-05-13T06:15:48.901Z,561.00
2023-05-13T06:16:48.838Z,567.00
2023-05-13T06:17:48.951Z,574.00
2023-05-13T06:18:48.959Z,582.00
2023-05-13T06:19:48.822Z,590.00
2023-05-13T06:20:48.780Z,597.00
2023-05-13T06:21:48.770Z,608.00
2023-05-13T06:22:48.768Z,612.00
2023-05-13T06:23:48.746Z,617.00
2023-05-13T06:24:48.726Z,624.00
2023-05-13T06:25:48.727Z,631.00
2023-05-13T06:26:48.713Z,635.00
2023-05-13T06:27:48.739Z,641.00
2023-05-13T06:28:48.710Z,644.00
2023-05-13T06:29:48.712Z,653.00
2023-05-13T06:30:48.782Z,729.00
2023-05-13T06:31:48.762Z,712.00
2023-05-13T06:33:00.170Z,706.00
2023-05-13T06:33:48.657Z,738.00
2023-05-13T06:34:48.640Z,817.00
2023-05-13T06:35:48.684Z,822.00
2023-05-13T06:36:48.623Z,830.00
2023-05-13T06:37:48.625Z,840.00
2023-05-13T06:38:48.606Z,836.00
2023-05-13T06:39:48.595Z,840.00
2023-05-13T06:40:48.568Z,850.00
2023-05-13T06:41:48.593Z,863.00
2023-05-13T06:42:48.646Z,877.00
2023-05-13T06:43:48.530Z,882.00
2023-05-13T06:44:48.526Z,886.00
2023-05-13T06:45:48.518Z,882.00
2023-05-13T06:46:48.510Z,882.00
2023-05-13T06:47:48.532Z,882.00
2023-05-13T06:48:48.662Z,887.00
2023-05-13T06:49:48.482Z,896.00
2023-05-13T06:50:48.476Z,905.00
2023-05-13T06:51:48.490Z,915.00
2023-05-13T06:52:48.470Z,923.00
2023-05-13T06:53:48.459Z,927.00
2023-05-13T06:54:48.531Z,930.00
2023-05-13T06:55:48.446Z,946.00
2023-05-13T06:56:48.442Z,953.00
2023-05-13T06:57:48.430Z,969.00
2023-05-13T06:58:48.417Z,976.00
2023-05-13T06:59:48.411Z,979.00
2023-05-13T07:00:48.587Z,980.00
2023-05-13T07:01:48.384Z,986.00
2023-05-13T07:02:48.455Z,1000.00
2023-05-13T07:03:48.406Z,1012.00
2023-05-13T07:04:48.352Z,1025.00
2023-05-13T07:05:48.337Z,1024.00
2023-05-13T07:06:48.509Z,1032.00
2023-05-13T07:07:48.346Z,1045.00
2023-05-13T07:08:48.300Z,1050.00
2023-05-13T07:09:48.297Z,1057.00
2023-05-13T07:10:48.287Z,1060.00
2023-05-13T07:11:48.272Z,1070.00
2023-05-13T07:12:48.359Z,1079.00
2023-05-13T07:13:49.209Z,1078.00
2023-05-13T07:14:48.246Z,1086.00
2023-05-13T07:15:48.239Z,1104.00
2023-05-13T07:16:48.275Z,1111.00
2023-05-13T07:17:48.634Z,1110.00
2023-05-13T07:18:48.424Z,1119.00
2023-05-13T07:19:48.205Z,1131.00
2023-05-13T07:20:48.188Z,1144.00
2023-05-13T07:21:48.255Z,1149.00
2023-05-13T07:22:48.315Z,1154.00
2023-05-13T07:23:48.403Z,1160.00
2023-05-13T07:24:48.564Z,1162.00
2023-05-13T07:25:48.498Z,1167.00
2023-05-13T07:26:48.560Z,1173.00
2023-05-13T07:27:48.635Z,1178.00
2023-05-13T07:28:48.676Z,1185.00
2023-05-13T07:29:48.737Z,1196.00
2023-05-13T07:30:48.986Z,1199.00
2023-05-13T07:31:48.867Z,1206.00
2023-05-13T07:32:48.923Z,1210.00
2023-05-13T07:33:48.970Z,1216.00
2023-05-13T07:34:49.021Z,1226.00
2023-05-13T07:35:49.061Z,1234.00
2023-05-13T07:36:49.188Z,1242.00
2023-05-13T07:37:49.341Z,1248.00
2023-05-13T07:38:49.228Z,1251.00
2023-05-13T07:39:49.458Z,1258.00
2023-05-13T07:40:49.317Z,1275.00
2023-05-13T07:41:49.367Z,1276.00
2023-05-13T07:42:49.568Z,1277.00
2023-05-13T07:43:49.490Z,1278.00
2023-05-13T07:44:49.542Z,1281.00
2023-05-13T07:45:49.577Z,1285.00
2023-05-13T07:46:49.686Z,1280.00
2023-05-13T07:47:49.717Z,1263.00
2023-05-13T07:48:49.724Z,1260.00
2023-05-13T07:49:50.029Z,1269.00
2023-05-13T07:50:49.847Z,1278.00
2023-05-13T07:51:49.871Z,1277.00
2023-05-13T07:52:50.047Z,1261.00
2023-05-13T07:53:49.973Z,1248.00
2023-05-13T07:54:49.992Z,1236.00
2023-05-13T07:55:50.071Z,1226.00
2023-05-13T07:56:50.105Z,1208.00
2023-05-13T07:57:50.269Z,1201.00
2023-05-13T07:58:50.195Z,1197.00
2023-05-13T07:59:50.233Z,1184.00
2023-05-13T08:00:50.292Z,1176.00
2023-05-13T08:01:50.345Z,1172.00
2023-05-13T08:02:50.501Z,1172.00
2023-05-13T08:03:50.640Z,1177.00
2023-05-13T08:04:50.533Z,1176.00
2023-05-13T08:05:50.551Z,1182.00
2023-05-13T08:06:50.600Z,1191.00
2023-05-13T08:07:50.656Z,1200.00
2023-05-13T08:08:51.225Z,1208.00
2023-05-13T08:09:50.744Z,1215.00
2023-05-13T08:10:50.806Z,1222.00
2023-05-13T08:11:50.934Z,1227.00
2023-05-13T08:12:50.928Z,1237.00
2023-05-13T08:13:50.951Z,1246.00
2023-05-13T08:14:51.014Z,1253.00
2023-05-13T08:15:51.161Z,1266.00
2023-05-13T08:16:51.231Z,1273.00
2023-05-13T08:17:51.245Z,1279.00
2023-05-13T08:18:51.310Z,1281.00
2023-05-13T08:19:51.291Z,1285.00
2023-05-13T08:20:51.348Z,1289.00
2023-05-13T08:21:51.325Z,1296.00
2023-05-13T08:22:51.366Z,1303.00
2023-05-13T08:23:51.421Z,1309.00
2023-05-13T08:24:51.447Z,1316.00
2023-05-13T08:25:51.483Z,1317.00
2023-05-13T08:26:51.532Z,1320.00
2023-05-13T08:27:51.594Z,1327.00
2023-05-13T08:28:54.474Z,1336.00
2023-05-13T08:29:51.744Z,1342.00
2023-05-13T08:30:51.592Z,1350.00
2023-05-13T08:31:51.645Z,1357.00
2023-05-13T08:32:51.660Z,1360.00
2023-05-13T08:33:51.570Z,1358.00
2023-05-13T08:34:51.566Z,1368.00
2023-05-13T08:35:51.545Z,1373.00
2023-05-13T08:36:51.567Z,1382.00
2023-05-13T08:37:51.543Z,1385.00
2023-05-13T08:38:51.500Z,1392.00
2023-05-13T08:39:51.503Z,1397.00
2023-05-13T08:40:51.488Z,1407.00
2023-05-13T08:41:51.455Z,1418.00
2023-05-13T08:42:51.439Z,1428.00
2023-05-13T08:43:51.464Z,1435.00
2023-05-13T08:44:51.418Z,1441.00
2023-05-13T08:45:51.402Z,1444.00
2023-05-13T08:46:51.378Z,1450.00
2023-05-13T08:47:51.476Z,1457.00
2023-05-13T08:48:51.424Z,1462.00
2023-05-13T08:49:51.440Z,1473.00
2023-05-13T08:50:51.524Z,1480.00
2023-05-13T08:51:51.472Z,1487.00
2023-05-13T08:52:51.486Z,1494.00
2023-05-13T08:53:51.514Z,1495.00
2023-05-13T08:54:51.550Z,1494.00
2023-05-13T08:55:51.590Z,1497.00
2023-05-13T08:56:51.619Z,1505.00
2023-05-13T08:57:51.649Z,1511.00
2023-05-13T08:58:51.734Z,1515.00
2023-05-13T08:59:51.753Z,1518.00
2023-05-13T09:00:51.904Z,1520.00
2023-05-13T09:01:51.818Z,1524.00
2023-05-13T09:02:51.837Z,1532.00
2023-05-13T09:03:51.863Z,1544.00
2023-05-13T09:04:51.899Z,1549.00
2023-05-13T09:05:51.899Z,1553.00
2023-05-13T09:06:51.929Z,1556.00
2023-05-13T09:07:51.960Z,1562.00
2023-05-13T09:08:51.995Z,1566.00
2023-05-13T09:09:52.018Z,1564.00
2023-05-13T09:10:52.052Z,1571.00
2023-05-13T09:11:52.077Z,1577.00
2023-05-13T09:12:52.109Z,1580.00
2023-05-13T09:13:52.154Z,1583.00
2023-05-13T09:14:52.181Z,1590.00
2023-05-13T09:15:52.284Z,1595.00
2023-05-13T09:16:52.262Z,1603.00
2023-05-13T09:17:52.441Z,1607.00
2023-05-13T09:18:52.370Z,1615.00
2023-05-13T09:19:52.405Z,1618.00
2023-05-13T09:20:52.368Z,1620.00
2023-05-13T09:21:52.399Z,1623.00
2023-05-13T09:22:52.422Z,1624.00
2023-05-13T09:23:52.459Z,1629.00
2023-05-13T09:24:52.488Z,1633.00
2023-05-13T09:25:52.512Z,1638.00
2023-05-13T09:26:52.536Z,1630.00
2023-05-13T09:27:52.564Z,1635.00
2023-05-13T09:28:52.596Z,1638.00
2023-05-13T09:29:52.633Z,1642.00
2023-05-13T09:30:52.703Z,1646.00
2023-05-13T09:31:52.715Z,1527.00
2023-05-13T09:32:52.757Z,1490.00
2023-05-13T09:33:52.772Z,1553.00
2023-05-13T09:34:52.795Z,1526.00
2023-05-13T09:35:53.419Z,1530.00
2023-05-13T09:36:52.915Z,1550.00
2023-05-13T09:37:52.921Z,1572.00
2023-05-13T09:38:52.939Z,1575.00
2023-05-13T09:39:53.004Z,1563.00
2023-05-13T09:40:53.044Z,1431.00
2023-05-13T09:41:53.078Z,1452.00
2023-05-13T09:42:53.129Z,1463.00
2023-05-13T09:43:53.119Z,1479.00
2023-05-13T09:44:53.184Z,1401.00
2023-05-13T09:45:53.209Z,1408.00
2023-05-13T09:46:53.289Z,1407.00
2023-05-13T09:47:53.381Z,1399.00
2023-05-13T09:48:55.159Z,1409.00
2023-05-13T09:49:53.337Z,1403.00
2023-05-13T09:50:53.453Z,1402.00
2023-05-13T09:51:53.298Z,1405.00
2023-05-13T09:52:53.287Z,1409.00
2023-05-13T09:53:53.279Z,1411.00
2023-05-13T09:54:53.264Z,1404.00
2023-05-13T09:55:53.257Z,1398.00
2023-05-13T09:56:53.245Z,1388.00
2023-05-13T09:57:53.235Z,1386.00
2023-05-13T09:58:53.305Z,1384.00
2023-05-13T09:59:53.257Z,1379.00
2023-05-13T10:00:53.281Z,1379.00
2023-05-13T10:01:53.256Z,1373.00
2023-05-13T10:02:53.318Z,1375.00
2023-05-13T10:03:53.215Z,1384.00
2023-05-13T10:04:53.154Z,1392.00
2023-05-13T10:05:53.165Z,1395.00
2023-05-13T10:06:53.174Z,1401.00
2023-05-13T10:07:53.231Z,1401.00
2023-05-13T10:08:53.281Z,1401.00
2023-05-13T10:09:53.325Z,1407.00
2023-05-13T10:10:53.366Z,1407.00
2023-05-13T10:11:53.410Z,1410.00
2023-05-13T10:12:53.459Z,1411.00
2023-05-13T10:13:53.514Z,1412.00
2023-05-13T10:14:53.585Z,1413.00
2023-05-13T10:15:53.632Z,1415.00
2023-05-13T10:16:53.715Z,1415.00
2023-05-13T10:17:53.731Z,1414.00
2023-05-13T10:18:53.885Z,1416.00
2023-05-13T10:19:53.819Z,1416.00
2023-05-13T10:20:54.278Z,1415.00
2023-05-13T10:21:53.886Z,1418.00
2023-05-13T10:22:53.939Z,1417.00
2023-05-13T10:23:53.977Z,1418.00
2023-05-13T10:24:54.022Z,1418.00
2023-05-13T10:25:54.070Z,1417.00
2023-05-13T10:26:54.116Z,1411.00
2023-05-13T10:27:54.175Z,1412.00
2023-05-13T10:28:54.217Z,1415.00
2023-05-13T10:29:54.270Z,1412.00
2023-05-13T10:30:54.426Z,1412.00
2023-05-13T10:31:54.403Z,1413.00
2023-05-13T10:32:54.440Z,1416.00
2023-05-13T10:33:54.428Z,1418.00
2023-05-13T10:34:54.478Z,1419.00
2023-05-13T10:35:54.556Z,1418.00
2023-05-13T10:36:54.576Z,1420.00
2023-05-13T10:37:54.616Z,1421.00
2023-05-13T10:38:54.679Z,1420.00
2023-05-13T10:39:54.719Z,1418.00
2023-05-13T10:40:54.757Z,1412.00
2023-05-13T10:41:54.798Z,1413.00
2023-05-13T10:42:54.876Z,1413.00
2023-05-13T10:43:54.896Z,1412.00
2023-05-13T10:44:54.945Z,1410.00
2023-05-13T10:45:55.014Z,1412.00
2023-05-13T10:46:55.047Z,1413.00
2023-05-13T10:47:55.186Z,1414.00
2023-05-13T10:48:55.150Z,1414.00
2023-05-13T10:49:55.199Z,1417.00
2023-05-13T10:50:55.248Z,1420.00
2023-05-13T10:51:55.485Z,1417.00
2023-05-13T10:52:55.346Z,1413.00
2023-05-13T10:53:55.401Z,1408.00
2023-05-13T10:54:55.448Z,1402.00
2023-05-13T10:55:55.503Z,1402.00
2023-05-13T10:56:55.549Z,1402.00
2023-05-13T10:57:55.607Z,1406.00
2023-05-13T10:58:55.654Z,1408.00
2023-05-13T10:59:55.702Z,1410.00
2023-05-13T11:00:55.751Z,1411.00
2023-05-13T11:01:55.841Z,1413.00
2023-05-13T11:02:55.920Z,1413.00
2023-05-13T11:03:55.953Z,1413.00
2023-05-13T11:04:55.932Z,1411.00
2023-05-13T11:05:55.987Z,1407.00
2023-05-13T11:06:56.032Z,1404.00
2023-05-13T11:07:56.118Z,1402.00
2023-05-13T11:08:56.493Z,1403.00
2023-05-13T11:09:56.187Z,1401.00
2023-05-13T11:10:56.233Z,1397.00
2023-05-13T11:11:56.279Z,1396.00
2023-05-13T11:12:56.355Z,1393.00
2023-05-13T11:13:56.393Z,1388.00
2023-05-13T11:14:56.491Z,1387.00
2023-05-13T11:15:56.513Z,1386.00
2023-05-13T11:16:56.551Z,1386.00
2023-05-13T11:17:56.613Z,1385.00
2023-05-13T11:18:56.667Z,1383.00
2023-05-13T11:19:56.706Z,1383.00
2023-05-13T11:20:56.771Z,1384.00
2023-05-13T11:21:56.796Z,1387.00
2023-05-13T11:22:56.863Z,1387.00
2023-05-13T11:23:56.942Z,1384.00
2023-05-13T11:24:56.961Z,1386.00
2023-05-13T11:25:57.031Z,1384.00
2023-05-13T11:26:57.093Z,1387.00
2023-05-13T11:27:57.128Z,1389.00
2023-05-13T11:28:57.178Z,1389.00
2023-05-13T11:29:57.236Z,1388.00
2023-05-13T11:30:57.311Z,1386.00
2023-05-13T11:31:59.862Z,1384.00
2023-05-13T11:32:57.484Z,1385.00
2023-05-13T11:33:57.320Z,1382.00
2023-05-13T11:34:57.294Z,1384.00
2023-05-13T11:35:57.281Z,1381.00
2023-05-13T11:36:57.268Z,1381.00
2023-05-13T11:37:59.815Z,1380.00
2023-05-13T11:38:57.241Z,1379.00
2023-05-13T11:39:57.241Z,1379.00
2023-05-13T11:40:57.204Z,1377.00
2023-05-13T11:41:57.212Z,1378.00
2023-05-13T11:42:57.168Z,1376.00
2023-05-13T11:43:57.148Z,1379.00
2023-05-13T11:44:57.139Z,1376.00
2023-05-13T11:45:57.188Z,1377.00
2023-05-13T11:46:57.098Z,1375.00
2023-05-13T11:47:57.115Z,1376.00
2023-05-13T11:48:57.052Z,1374.00
2023-05-13T11:49:57.035Z,1370.00
2023-05-13T11:50:57.019Z,1370.00
2023-05-13T11:51:56.999Z,1370.00
2023-05-13T11:52:56.982Z,1369.00
2023-05-13T11:53:56.972Z,1368.00
2023-05-13T11:54:56.954Z,1368.00
2023-05-13T11:55:56.966Z,1364.00
2023-05-13T11:56:56.931Z,1360.00
2023-05-13T11:57:56.928Z,1357.00
2023-05-13T11:58:56.895Z,1354.00
2023-05-13T11:59:56.880Z,1360.00
2023-05-13T12:00:56.875Z,1359.00
2023-05-13T12:01:56.917Z,1361.00
2023-05-13T12:02:57.075Z,1359.00
2023-05-13T12:03:56.984Z,1357.00
2023-05-13T12:04:57.029Z,1355.00
2023-05-13T12:05:57.028Z,1357.00
2023-05-13T12:06:57.064Z,1357.00
2023-05-13T12:07:57.113Z,1357.00
2023-05-13T12:08:57.160Z,1358.00
2023-05-13T12:09:57.190Z,1359.00
2023-05-13T12:10:57.237Z,1355.00
2023-05-13T12:11:57.304Z,1352.00
2023-05-13T12:12:57.340Z,1353.00
2023-05-13T12:13:57.377Z,1350.00
2023-05-13T12:14:57.426Z,1348.00
2023-05-13T12:15:57.518Z,1344.00
2023-05-13T12:16:57.531Z,1341.00
2023-05-13T12:17:57.636Z,1342.00
2023-05-13T12:18:57.641Z,1339.00